createdAt,value
2019-05-17T00:00:37.472Z,62.90
2019-05-17T00:01:40.517Z,62.90
2019-05-17T00:02:43.485Z,63.00
2019-05-17T00:03:47.077Z,63.00
2019-05-17T00:04:50.041Z,63.10
2019-05-17T00:05:53.106Z,63.30
2019-05-17T00:06:57.050Z,63.50
2019-05-17T00:08:01.599Z,63.70
2019-05-17T00:09:06.987Z,63.80
2019-05-17T00:10:10.657Z,64.00
2019-05-17T00:11:13.628Z,64.10
2019-05-17T00:12:16.665Z,64.30
2019-05-17T00:13:19.660Z,64.60
2019-05-17T00:14:22.566Z,64.90
2019-05-17T00:15:27.312Z,65.20
2019-05-17T00:16:30.226Z,65.50
2019-05-17T00:17:33.149Z,65.80
2019-05-17T00:18:37.009Z,66.00
2019-05-17T00:19:40.040Z,66.10
2019-05-17T00:20:42.978Z,66.20
2019-05-17T00:21:47.517Z,66.30
2019-05-17T00:22:50.618Z,66.40
2019-05-17T00:23:53.513Z,66.40
2019-05-17T00:24:56.816Z,66.40
2019-05-17T00:25:59.881Z,66.10
2019-05-17T00:27:02.880Z,65.90
2019-05-17T00:28:07.317Z,65.70
2019-05-17T00:29:10.441Z,65.50
2019-05-17T00:30:13.557Z,65.40
2019-05-17T00:31:17.184Z,65.30
2019-05-17T00:32:20.141Z,65.10
2019-05-17T00:33:23.043Z,65.00
2019-05-17T00:34:27.011Z,65.00
2019-05-17T00:35:30.009Z,64.80
2019-05-17T00:36:32.926Z,64.70
2019-05-17T00:37:37.251Z,64.60
2019-05-17T00:38:48.094Z,64.60
2019-05-17T00:39:47.116Z,65.30
2019-05-17T00:40:50.153Z,64.50
2019-05-17T00:41:53.070Z,64.40
2019-05-17T00:42:57.092Z,64.40
2019-05-17T00:44:00.069Z,64.30
2019-05-17T00:45:03.741Z,64.20
2019-05-17T00:46:06.884Z,64.00
2019-05-17T00:47:09.764Z,63.80
2019-05-17T00:48:12.686Z,63.70
2019-05-17T00:49:17.065Z,63.50
2019-05-17T00:50:21.272Z,63.50
2019-05-17T00:51:24.264Z,63.40
2019-05-17T00:52:27.363Z,63.40
2019-05-17T00:53:30.753Z,63.40
2019-05-17T00:54:33.569Z,63.20
2019-05-17T00:55:36.693Z,63.20
2019-05-17T00:56:39.757Z,63.20
2019-05-17T00:57:42.989Z,63.20
2019-05-17T00:58:47.802Z,63.20
2019-05-17T00:59:50.629Z,63.20
2019-05-17T01:00:53.630Z,63.20
2019-05-17T01:01:56.536Z,63.20
2019-05-17T01:02:59.472Z,63.20
2019-05-17T01:04:02.435Z,63.30
2019-05-17T01:05:06.311Z,63.30
2019-05-17T01:06:09.528Z,63.30
2019-05-17T01:07:12.753Z,63.30
2019-05-17T01:08:17.447Z,63.50
2019-05-17T01:09:20.403Z,63.60
2019-05-17T01:10:23.337Z,63.60
2019-05-17T01:11:27.105Z,63.60
2019-05-17T01:12:30.072Z,63.60
2019-05-17T01:13:32.987Z,63.50
2019-05-17T01:14:37.210Z,63.50
2019-05-17T01:15:40.291Z,63.50
2019-05-17T01:16:43.215Z,63.40
2019-05-17T01:17:47.463Z,63.40
2019-05-17T01:18:50.424Z,63.40
2019-05-17T01:19:53.346Z,63.30
2019-05-17T01:20:56.797Z,63.30
2019-05-17T01:21:59.769Z,63.30
2019-05-17T01:23:02.695Z,63.40
2019-05-17T01:24:06.957Z,63.50
2019-05-17T01:25:11.303Z,63.40
2019-05-17T01:26:14.262Z,63.50
2019-05-17T01:27:17.361Z,63.50
2019-05-17T01:28:20.292Z,63.40
2019-05-17T01:29:23.205Z,63.40
2019-05-17T01:30:26.664Z,63.40
2019-05-17T01:31:29.635Z,63.50
2019-05-17T01:32:32.566Z,63.60
2019-05-17T01:33:36.708Z,63.60
2019-05-17T01:34:39.857Z,63.60
2019-05-17T01:35:42.826Z,63.60
2019-05-17T01:36:46.487Z,63.60
2019-05-17T01:37:49.481Z,63.60
2019-05-17T01:38:52.452Z,63.60
2019-05-17T01:39:57.254Z,63.60
2019-05-17T01:41:00.085Z,63.60
2019-05-17T01:42:03.087Z,63.60
2019-05-17T01:43:07.820Z,63.70
2019-05-17T01:44:10.776Z,63.70
2019-05-17T01:45:16.452Z,63.70
2019-05-17T01:46:19.039Z,63.70
2019-05-17T01:47:21.953Z,63.70
2019-05-17T01:48:26.923Z,63.80
2019-05-17T01:49:29.827Z,63.80
2019-05-17T01:50:32.738Z,63.80
2019-05-17T01:51:37.098Z,63.90
2019-05-17T01:52:40.036Z,63.90
2019-05-17T01:53:44.046Z,63.90
2019-05-17T01:54:47.109Z,63.90
2019-05-17T01:55:50.023Z,64.00
2019-05-17T01:56:53.001Z,64.10
2019-05-17T01:57:56.446Z,64.30
2019-05-17T01:58:59.374Z,64.40
2019-05-17T02:00:02.516Z,64.50
2019-05-17T02:01:07.697Z,64.50
2019-05-17T02:02:16.289Z,64.40
2019-05-17T02:03:18.632Z,64.30
2019-05-17T02:04:21.548Z,64.30
2019-05-17T02:05:24.450Z,64.20
2019-05-17T02:06:27.407Z,64.10
2019-05-17T02:07:30.317Z,64.10
2019-05-17T02:08:33.285Z,64.00
2019-05-17T02:09:41.200Z,64.00
2019-05-17T02:10:40.929Z,64.00
2019-05-17T02:11:43.828Z,63.90
2019-05-17T02:12:49.806Z,64.00
2019-05-17T02:13:52.749Z,64.00
2019-05-17T02:14:57.575Z,64.00
2019-05-17T02:16:00.416Z,63.90
2019-05-17T02:17:03.369Z,64.00
2019-05-17T02:18:06.996Z,64.10
2019-05-17T02:19:10.228Z,64.10
2019-05-17T02:20:13.698Z,64.10
2019-05-17T02:21:16.935Z,64.10
2019-05-17T02:22:19.870Z,64.10
2019-05-17T02:23:22.862Z,64.10
2019-05-17T02:24:27.495Z,64.10
2019-05-17T02:25:30.573Z,64.10
2019-05-17T02:26:33.465Z,64.10
2019-05-17T02:27:41.259Z,64.20
2019-05-17T02:28:41.710Z,64.20
2019-05-17T02:29:44.773Z,64.20
2019-05-17T02:30:47.787Z,64.20
2019-05-17T02:31:52.596Z,64.20
2019-05-17T02:32:55.822Z,64.10
2019-05-17T02:34:02.808Z,64.00
2019-05-17T02:35:04.978Z,63.80
2019-05-17T02:36:08.906Z,63.70
2019-05-17T02:37:13.611Z,63.60
2019-05-17T02:38:16.578Z,63.60
2019-05-17T02:39:19.492Z,63.60
2019-05-17T02:40:22.759Z,63.60
2019-05-17T02:41:25.725Z,63.50
2019-05-17T02:42:28.705Z,63.60
2019-05-17T02:43:33.389Z,63.50
2019-05-17T02:44:36.676Z,63.40
2019-05-17T02:45:39.582Z,63.30
2019-05-17T02:46:43.574Z,63.30
2019-05-17T02:47:46.458Z,63.30
2019-05-17T02:48:53.798Z,63.30
2019-05-17T02:49:55.745Z,63.50
2019-05-17T02:50:58.682Z,63.70
2019-05-17T02:52:03.304Z,63.80
2019-05-17T02:53:06.465Z,63.90
2019-05-17T02:54:12.986Z,63.90
2019-05-17T02:55:14.532Z,64.10
2019-05-17T02:56:17.504Z,64.30
2019-05-17T02:57:23.268Z,64.40
2019-05-17T02:58:25.166Z,64.80
2019-05-17T02:59:28.117Z,64.90
2019-05-17T03:00:33.796Z,65.10
2019-05-17T03:01:35.755Z,65.20
2019-05-17T03:02:38.725Z,65.10
2019-05-17T03:03:43.756Z,64.90
2019-05-17T03:04:46.526Z,64.80
2019-05-17T03:05:49.435Z,64.80
2019-05-17T03:06:53.293Z,64.80
2019-05-17T03:07:56.360Z,64.70
2019-05-17T03:08:59.284Z,64.50
2019-05-17T03:10:13.913Z,64.40
2019-05-17T03:11:06.913Z,64.30
2019-05-17T03:12:12.705Z,64.20
2019-05-17T03:13:17.840Z,64.10
2019-05-17T03:14:19.411Z,64.10
2019-05-17T03:15:23.321Z,64.00
2019-05-17T03:16:26.543Z,64.00
2019-05-17T03:17:29.434Z,64.00
2019-05-17T03:18:33.370Z,63.90
2019-05-17T03:19:38.377Z,63.70
2019-05-17T03:20:43.125Z,64.40
2019-05-17T03:21:46.018Z,63.50
2019-05-17T03:22:52.284Z,63.40
2019-05-17T03:23:54.674Z,63.40
2019-05-17T03:24:57.893Z,63.30
2019-05-17T03:26:03.706Z,63.30
2019-05-17T03:27:05.791Z,63.30
2019-05-17T03:28:08.678Z,63.20
2019-05-17T03:29:13.634Z,63.30
2019-05-17T03:30:18.875Z,63.30
2019-05-17T03:31:26.213Z,63.30
2019-05-17T03:32:27.801Z,63.40
2019-05-17T03:33:35.849Z,63.40
2019-05-17T03:34:37.746Z,63.40
2019-05-17T03:35:45.669Z,63.50
2019-05-17T03:36:47.127Z,63.60
2019-05-17T03:37:52.960Z,63.60
2019-05-17T03:38:55.018Z,63.70
2019-05-17T03:39:58.367Z,63.70
2019-05-17T03:41:13.800Z,63.70
2019-05-17T03:42:06.091Z,63.80
2019-05-17T03:43:09.025Z,63.90
2019-05-17T03:44:13.531Z,64.00
2019-05-17T03:45:17.001Z,64.00
2019-05-17T03:46:23.087Z,64.00
2019-05-17T03:47:24.690Z,64.10
2019-05-17T03:48:27.613Z,64.10
2019-05-17T03:49:33.116Z,64.20
2019-05-17T03:50:35.447Z,64.20
2019-05-17T03:51:38.511Z,64.30
2019-05-17T03:52:44.315Z,64.30
2019-05-17T03:53:46.120Z,64.30
2019-05-17T03:54:49.065Z,64.40
2019-05-17T03:55:53.944Z,65.30
2019-05-17T03:56:56.811Z,64.50
2019-05-17T03:58:03.108Z,64.60
2019-05-17T03:59:04.630Z,65.10
2019-05-17T04:00:08.213Z,65.50
2019-05-17T04:01:14.034Z,65.80
2019-05-17T04:02:16.154Z,67.00
2019-05-17T04:03:19.046Z,66.70
2019-05-17T04:04:22.909Z,67.00
2019-05-17T04:05:26.039Z,67.10
2019-05-17T04:06:29.282Z,67.20
2019-05-17T04:07:32.999Z,67.10
2019-05-17T04:08:35.916Z,66.80
2019-05-17T04:09:43.463Z,66.60
2019-05-17T04:10:44.749Z,66.40
2019-05-17T04:11:47.673Z,66.30
2019-05-17T04:12:53.060Z,66.10
2019-05-17T04:13:55.440Z,66.00
2019-05-17T04:14:58.365Z,65.90
2019-05-17T04:16:05.680Z,65.80
2019-05-17T04:17:06.156Z,65.70
2019-05-17T04:18:09.104Z,65.60
2019-05-17T04:19:14.033Z,65.50
2019-05-17T04:20:16.823Z,65.50
2019-05-17T04:21:23.129Z,65.40
2019-05-17T04:22:24.477Z,65.30
2019-05-17T04:23:27.442Z,65.20
2019-05-17T04:24:32.389Z,65.00
2019-05-17T04:25:38.755Z,64.90
2019-05-17T04:26:43.987Z,64.80
2019-05-17T04:27:45.566Z,64.80
2019-05-17T04:28:48.586Z,64.70
2019-05-17T04:29:53.325Z,64.50
2019-05-17T04:30:56.198Z,64.50
2019-05-17T04:31:59.139Z,64.30
2019-05-17T04:33:03.334Z,64.20
2019-05-17T04:34:06.878Z,64.10
2019-05-17T04:35:13.052Z,63.90
2019-05-17T04:36:14.839Z,63.80
2019-05-17T04:37:17.763Z,63.70
2019-05-17T04:38:23.494Z,63.70
2019-05-17T04:39:25.550Z,63.50
2019-05-17T04:40:28.609Z,63.50
2019-05-17T04:41:44.124Z,63.50
2019-05-17T04:42:36.601Z,63.50
2019-05-17T04:43:42.267Z,63.50
2019-05-17T04:44:44.290Z,63.40
2019-05-17T04:45:47.203Z,63.30
2019-05-17T04:46:53.375Z,63.30
2019-05-17T04:47:54.938Z,63.30
2019-05-17T04:48:58.862Z,63.20
2019-05-17T04:50:03.908Z,63.20
2019-05-17T04:51:06.505Z,63.10
2019-05-17T04:52:09.434Z,63.00
2019-05-17T04:53:13.366Z,62.90
2019-05-17T04:54:16.512Z,63.00
2019-05-17T04:55:22.816Z,63.00
2019-05-17T04:56:24.338Z,63.20
2019-05-17T04:57:27.257Z,63.30
2019-05-17T04:58:33.087Z,63.30
2019-05-17T04:59:34.981Z,63.20
2019-05-17T05:00:37.930Z,63.10
2019-05-17T05:01:43.538Z,63.10
2019-05-17T05:02:45.566Z,63.20
2019-05-17T05:03:48.466Z,63.30
2019-05-17T05:04:53.927Z,63.30
2019-05-17T05:05:56.861Z,63.50
2019-05-17T05:07:02.896Z,63.40
2019-05-17T05:08:04.503Z,63.50
2019-05-17T05:09:07.510Z,63.60
2019-05-17T05:10:13.486Z,63.50
2019-05-17T05:11:15.389Z,63.50
2019-05-17T05:12:18.316Z,63.50
2019-05-17T05:13:22.705Z,63.50
2019-05-17T05:14:25.768Z,63.50
2019-05-17T05:15:39.420Z,63.50
2019-05-17T05:16:42.550Z,63.60
2019-05-17T05:17:45.553Z,63.70
2019-05-17T05:18:48.473Z,63.70
2019-05-17T05:19:53.049Z,63.70
2019-05-17T05:20:57.271Z,63.70
2019-05-17T05:22:04.247Z,63.90
2019-05-17T05:23:05.045Z,63.90
2019-05-17T05:24:08.034Z,64.00
2019-05-17T05:25:12.355Z,64.20
2019-05-17T05:26:15.594Z,64.40
2019-05-17T05:27:18.600Z,64.30
2019-05-17T05:28:22.490Z,64.00
2019-05-17T05:29:25.534Z,64.10
2019-05-17T05:30:31.870Z,64.20
2019-05-17T05:31:34.585Z,64.30
2019-05-17T05:32:37.577Z,64.50
2019-05-17T05:33:42.340Z,64.40
2019-05-17T05:34:46.508Z,64.10
2019-05-17T05:35:51.546Z,64.00
2019-05-17T05:36:54.150Z,63.80
2019-05-17T05:37:57.963Z,63.60
2019-05-17T05:39:02.432Z,63.40
2019-05-17T05:40:05.738Z,63.30
2019-05-17T05:41:08.628Z,63.20
2019-05-17T05:42:13.969Z,63.10
2019-05-17T05:43:16.352Z,63.20
2019-05-17T05:44:21.414Z,63.30
2019-05-17T05:45:23.993Z,63.30
2019-05-17T05:46:26.954Z,63.40
2019-05-17T05:47:32.235Z,63.30
2019-05-17T05:48:34.649Z,63.20
2019-05-17T05:49:37.618Z,62.60
2019-05-17T05:50:42.872Z,62.40
2019-05-17T05:51:45.534Z,62.50
2019-05-17T05:52:48.443Z,62.40
2019-05-17T05:53:52.250Z,62.30
2019-05-17T05:54:56.253Z,62.60
2019-05-17T05:55:59.171Z,62.20
2019-05-17T05:57:02.452Z,62.10
2019-05-17T05:58:05.273Z,61.60
2019-05-17T05:59:08.265Z,61.60
2019-05-17T06:00:12.742Z,61.70
2019-05-17T06:01:15.918Z,61.60
2019-05-17T06:02:18.857Z,61.20
2019-05-17T06:03:22.503Z,60.90
2019-05-17T06:04:25.581Z,60.90
2019-05-17T06:05:29.089Z,60.60
2019-05-17T06:06:32.279Z,60.40
2019-05-17T06:07:36.353Z,60.20
2019-05-17T06:08:41.374Z,60.90
2019-05-17T06:09:44.496Z,59.90
2019-05-17T06:10:47.401Z,59.80
2019-05-17T06:11:51.945Z,59.90
2019-05-17T06:12:54.899Z,60.00
2019-05-17T06:13:57.965Z,60.00
2019-05-17T06:15:02.760Z,60.00
2019-05-17T06:16:05.625Z,60.00
2019-05-17T06:17:08.798Z,59.70
2019-05-17T06:18:12.693Z,59.60
2019-05-17T06:19:15.630Z,59.50
2019-05-17T06:20:22.385Z,59.80
2019-05-17T06:21:25.137Z,60.30
2019-05-17T06:22:28.028Z,60.10
2019-05-17T06:23:33.491Z,59.80
2019-05-17T06:24:36.393Z,59.50
2019-05-17T06:25:39.360Z,59.40
2019-05-17T06:26:42.325Z,59.30
2019-05-17T06:27:45.216Z,59.10
2019-05-17T06:28:48.182Z,59.20
2019-05-17T06:29:51.614Z,59.10
2019-05-17T06:30:57.152Z,58.90
2019-05-17T06:32:02.371Z,58.70
2019-05-17T06:33:04.977Z,58.80
2019-05-17T06:34:07.916Z,58.70
2019-05-17T06:35:12.587Z,58.40
2019-05-17T06:36:15.798Z,58.20
2019-05-17T06:37:18.894Z,57.90
2019-05-17T06:38:22.460Z,58.00
2019-05-17T06:39:25.490Z,58.00
2019-05-17T06:40:28.685Z,57.90
2019-05-17T06:41:32.364Z,58.00
2019-05-17T06:42:40.962Z,57.80
2019-05-17T06:43:42.909Z,57.70
2019-05-17T06:44:46.252Z,57.80
2019-05-17T06:45:49.193Z,57.80
2019-05-17T06:46:52.217Z,57.70
2019-05-17T06:47:55.140Z,57.40
2019-05-17T06:49:02.831Z,57.20
2019-05-17T06:50:05.805Z,57.00
2019-05-17T06:51:08.690Z,56.90
2019-05-17T06:52:11.731Z,56.70
2019-05-17T06:53:16.530Z,56.50
2019-05-17T06:54:21.530Z,56.30
2019-05-17T06:55:24.368Z,56.10
2019-05-17T06:56:28.287Z,56.00
2019-05-17T06:57:33.209Z,55.90
2019-05-17T06:58:36.385Z,55.90
2019-05-17T06:59:39.345Z,55.60
2019-05-17T07:00:42.338Z,55.90
2019-05-17T07:01:45.330Z,56.20
2019-05-17T07:02:49.829Z,56.10
2019-05-17T07:03:53.089Z,55.80
2019-05-17T07:04:58.025Z,55.70
2019-05-17T07:06:02.577Z,55.60
2019-05-17T07:07:26.346Z,55.80
2019-05-17T07:08:29.616Z,55.80
2019-05-17T07:09:32.726Z,55.90
2019-05-17T07:10:35.662Z,56.00
2019-05-17T07:11:39.864Z,56.20
2019-05-17T07:12:54.886Z,56.30
2019-05-17T07:13:49.508Z,56.20
2019-05-17T07:14:52.446Z,56.00
2019-05-17T07:15:55.381Z,55.90
2019-05-17T07:16:59.586Z,55.80
2019-05-17T07:18:02.445Z,55.70
2019-05-17T07:19:05.491Z,55.60
2019-05-17T07:20:10.294Z,55.70
2019-05-17T07:21:13.729Z,55.70
2019-05-17T07:22:16.833Z,55.60
2019-05-17T07:23:19.853Z,55.60
2019-05-17T07:24:25.305Z,55.60
2019-05-17T07:25:30.225Z,55.30
2019-05-17T07:26:32.988Z,55.20
2019-05-17T07:27:41.361Z,55.10
2019-05-17T07:28:40.803Z,55.20
2019-05-17T07:29:43.773Z,55.10
2019-05-17T07:30:46.714Z,55.10
2019-05-17T07:31:49.837Z,54.90
2019-05-17T07:32:52.869Z,54.90
2019-05-17T07:33:55.856Z,54.80
2019-05-17T07:35:03.051Z,55.30
2019-05-17T07:36:06.923Z,54.60
2019-05-17T07:37:10.585Z,54.80
2019-05-17T07:38:16.252Z,54.80
2019-05-17T07:39:20.466Z,54.80
2019-05-17T07:40:23.756Z,54.70
2019-05-17T07:41:26.693Z,54.60
2019-05-17T07:42:29.949Z,54.50
2019-05-17T07:43:32.885Z,54.40
2019-05-17T07:44:35.896Z,54.40
2019-05-17T07:45:40.424Z,54.40
2019-05-17T07:46:43.545Z,54.40
2019-05-17T07:47:46.490Z,54.40
2019-05-17T07:48:49.824Z,54.30
2019-05-17T07:49:54.715Z,54.40
2019-05-17T07:50:59.394Z,54.20
2019-05-17T07:52:02.421Z,54.20
2019-05-17T07:53:06.733Z,54.20
2019-05-17T07:54:12.519Z,54.30
2019-05-17T07:55:16.018Z,54.30
2019-05-17T07:56:20.003Z,54.30
2019-05-17T07:57:23.245Z,54.20
2019-05-17T07:58:26.214Z,54.20
2019-05-17T07:59:29.486Z,54.20
2019-05-17T08:00:32.458Z,53.90
2019-05-17T08:01:35.555Z,53.60
2019-05-17T08:02:40.150Z,53.40
2019-05-17T08:03:44.349Z,53.30
2019-05-17T08:04:49.932Z,53.30
2019-05-17T08:05:52.094Z,53.30
2019-05-17T08:06:56.067Z,53.20
2019-05-17T08:08:00.150Z,53.20
2019-05-17T08:09:05.706Z,53.20
2019-05-17T08:10:10.902Z,53.30
2019-05-17T08:11:13.832Z,53.40
2019-05-17T08:12:16.811Z,53.40
2019-05-17T08:13:29.889Z,53.50
2019-05-17T08:14:30.016Z,53.50
2019-05-17T08:15:30.420Z,53.50
2019-05-17T08:16:33.753Z,53.60
2019-05-17T08:17:36.814Z,53.50
2019-05-17T08:18:40.257Z,53.60
2019-05-17T08:19:43.596Z,53.50
2019-05-17T08:20:52.517Z,53.40
2019-05-17T08:21:55.898Z,53.30
2019-05-17T08:23:00.197Z,53.40
2019-05-17T08:24:03.105Z,53.40
2019-05-17T08:25:06.180Z,53.30
2019-05-17T08:26:11.848Z,53.20
2019-05-17T08:27:20.104Z,53.00
2019-05-17T08:28:23.262Z,53.10
2019-05-17T08:29:26.333Z,53.20
2019-05-17T08:30:30.247Z,53.20
2019-05-17T08:31:33.368Z,53.30
2019-05-17T08:32:40.043Z,53.50
2019-05-17T08:33:42.904Z,53.50
2019-05-17T08:34:48.809Z,53.70
2019-05-17T08:35:50.781Z,53.60
2019-05-17T08:36:53.785Z,53.50
2019-05-17T08:37:56.719Z,53.50
2019-05-17T08:38:59.776Z,53.30
2019-05-17T08:40:02.813Z,53.10
2019-05-17T08:41:06.690Z,53.20
2019-05-17T08:42:09.885Z,53.40
2019-05-17T08:43:12.870Z,53.40
2019-05-17T08:44:15.885Z,53.30
2019-05-17T08:45:20.602Z,53.50
2019-05-17T08:46:23.613Z,53.40
2019-05-17T08:47:26.529Z,53.30
2019-05-17T08:48:29.524Z,53.40
2019-05-17T08:49:32.469Z,53.40
2019-05-17T08:50:35.417Z,53.40
2019-05-17T08:51:39.666Z,53.90
2019-05-17T08:52:42.789Z,53.20
2019-05-17T08:53:45.826Z,53.40
2019-05-17T08:54:49.605Z,53.60
2019-05-17T08:55:52.820Z,53.60
2019-05-17T08:56:55.734Z,53.50
2019-05-17T08:58:00.808Z,53.30
2019-05-17T08:59:03.519Z,53.20
2019-05-17T09:00:10.151Z,52.90
2019-05-17T09:01:11.995Z,52.70
2019-05-17T09:02:14.896Z,52.80
2019-05-17T09:03:19.560Z,52.80
2019-05-17T09:04:23.513Z,52.70
2019-05-17T09:05:26.786Z,52.60
2019-05-17T09:06:29.860Z,52.60
2019-05-17T09:07:32.780Z,52.60
2019-05-17T09:08:35.714Z,52.60
2019-05-17T09:09:39.472Z,52.60
2019-05-17T09:10:42.625Z,52.60
2019-05-17T09:11:45.563Z,52.50
2019-05-17T09:12:51.157Z,52.30
2019-05-17T09:13:58.350Z,52.20
2019-05-17T09:15:00.416Z,52.20
2019-05-17T09:16:03.625Z,52.10
2019-05-17T09:17:06.557Z,51.90
2019-05-17T09:18:09.983Z,51.80
2019-05-17T09:19:13.030Z,51.80
2019-05-17T09:20:16.073Z,51.70
2019-05-17T09:21:21.669Z,51.80
2019-05-17T09:22:23.793Z,51.60
2019-05-17T09:23:26.785Z,51.70
2019-05-17T09:24:30.027Z,51.70
2019-05-17T09:25:34.297Z,51.70
2019-05-17T09:26:37.238Z,51.60
2019-05-17T09:27:41.172Z,51.40
2019-05-17T09:28:47.177Z,51.50
2019-05-17T09:29:50.186Z,51.50
2019-05-17T09:30:53.410Z,51.50
2019-05-17T09:31:56.385Z,51.70
2019-05-17T09:33:00.345Z,51.60
2019-05-17T09:34:04.184Z,51.60
2019-05-17T09:35:09.799Z,52.20
2019-05-17T09:36:12.904Z,52.00
2019-05-17T09:37:18.918Z,51.90
2019-05-17T09:38:21.004Z,52.00
2019-05-17T09:39:23.907Z,52.10
2019-05-17T09:40:26.809Z,52.00
2019-05-17T09:41:29.713Z,52.00
2019-05-17T09:42:32.822Z,51.90
2019-05-17T09:43:36.064Z,52.10
2019-05-17T09:44:40.420Z,52.00
2019-05-17T09:45:43.386Z,52.10
2019-05-17T09:46:46.301Z,52.00
2019-05-17T09:47:50.522Z,52.60
2019-05-17T09:48:53.957Z,52.00
2019-05-17T09:49:56.930Z,52.00
2019-05-17T09:51:00.205Z,52.00
2019-05-17T09:52:03.265Z,52.20
2019-05-17T09:53:10.900Z,52.20
2019-05-17T09:54:13.480Z,52.30
2019-05-17T09:55:16.403Z,52.10
2019-05-17T09:56:20.616Z,52.10
2019-05-17T09:57:23.714Z,52.00
2019-05-17T09:58:26.665Z,51.70
2019-05-17T09:59:29.989Z,51.60
2019-05-17T10:00:33.513Z,51.40
2019-05-17T10:01:36.572Z,51.20
2019-05-17T10:02:40.145Z,51.10
2019-05-17T10:03:43.365Z,51.20
2019-05-17T10:04:46.324Z,51.20
2019-05-17T10:05:49.638Z,51.20
2019-05-17T10:06:52.675Z,51.10
2019-05-17T10:07:55.771Z,51.00
2019-05-17T10:09:00.216Z,50.90
2019-05-17T10:10:03.814Z,50.90
2019-05-17T10:11:11.270Z,50.90
2019-05-17T10:12:11.633Z,50.60
2019-05-17T10:13:14.647Z,50.50
2019-05-17T10:14:25.755Z,50.80
2019-05-17T10:15:22.418Z,50.80
2019-05-17T10:16:25.705Z,50.60
2019-05-17T10:17:29.376Z,50.60
2019-05-17T10:18:32.473Z,50.40
2019-05-17T10:19:35.404Z,50.50
2019-05-17T10:20:39.923Z,50.60
2019-05-17T10:21:43.101Z,50.60
2019-05-17T10:22:46.084Z,50.40
2019-05-17T10:23:49.765Z,50.30
2019-05-17T10:24:52.842Z,50.30
2019-05-17T10:25:55.778Z,50.40
2019-05-17T10:26:59.527Z,50.40
2019-05-17T10:28:03.013Z,50.40
2019-05-17T10:29:05.917Z,50.40
2019-05-17T10:30:10.240Z,50.40
2019-05-17T10:31:13.474Z,50.40
2019-05-17T10:32:16.585Z,50.40
2019-05-17T10:33:20.005Z,50.40
2019-05-17T10:34:23.525Z,50.30
2019-05-17T10:35:26.485Z,50.20
2019-05-17T10:36:29.484Z,50.10
2019-05-17T10:37:32.679Z,50.10
2019-05-17T10:38:35.670Z,50.20
2019-05-17T10:39:41.717Z,50.50
2019-05-17T10:40:45.379Z,50.50
2019-05-17T10:41:50.094Z,50.50
2019-05-17T10:42:53.113Z,50.20
2019-05-17T10:43:55.984Z,50.20
2019-05-17T10:44:59.917Z,50.20
2019-05-17T10:46:03.142Z,49.80
2019-05-17T10:47:06.216Z,49.60
2019-05-17T10:48:12.125Z,49.70
2019-05-17T10:49:15.126Z,49.90
2019-05-17T10:50:20.399Z,50.20
2019-05-17T10:51:22.789Z,50.20
2019-05-17T10:52:25.713Z,49.90
2019-05-17T10:53:29.803Z,49.80
2019-05-17T10:54:33.785Z,50.10
2019-05-17T10:55:36.739Z,50.00
2019-05-17T10:56:39.656Z,49.80
2019-05-17T10:57:42.649Z,50.20
2019-05-17T10:58:45.552Z,49.60
2019-05-17T10:59:49.942Z,49.60
2019-05-17T11:00:52.919Z,49.60
2019-05-17T11:01:55.915Z,49.40
2019-05-17T11:03:00.364Z,49.40
2019-05-17T11:04:03.493Z,49.30
2019-05-17T11:05:06.613Z,49.40
2019-05-17T11:06:10.889Z,49.30
2019-05-17T11:07:14.155Z,49.10
2019-05-17T11:08:19.573Z,49.10
2019-05-17T11:09:22.147Z,49.20
2019-05-17T11:10:25.153Z,49.20
2019-05-17T11:11:28.079Z,49.20
2019-05-17T11:12:30.998Z,49.20
2019-05-17T11:13:33.961Z,49.20
2019-05-17T11:14:50.326Z,49.30
2019-05-17T11:15:41.590Z,49.20
2019-05-17T11:16:44.725Z,49.10
2019-05-17T11:17:47.604Z,49.20
2019-05-17T11:18:50.588Z,49.10
2019-05-17T11:19:53.513Z,49.10
2019-05-17T11:20:56.456Z,49.00
2019-05-17T11:21:59.360Z,48.90
2019-05-17T11:23:02.419Z,48.90
2019-05-17T11:24:05.364Z,48.60
2019-05-17T11:25:08.403Z,48.40
2019-05-17T11:26:11.329Z,48.30
2019-05-17T11:27:14.302Z,48.30
2019-05-17T11:28:17.274Z,48.10
2019-05-17T11:29:20.361Z,48.00
2019-05-17T11:30:23.350Z,48.00
2019-05-17T11:31:26.342Z,48.20
2019-05-17T11:32:29.272Z,48.40
2019-05-17T11:33:32.362Z,48.50
2019-05-17T11:34:35.298Z,48.40
2019-05-17T11:35:38.238Z,48.10
2019-05-17T11:36:42.173Z,47.90
2019-05-17T11:37:45.081Z,47.90
2019-05-17T11:38:47.985Z,47.70
2019-05-17T11:39:51.072Z,47.50
2019-05-17T11:40:54.012Z,47.20
2019-05-17T11:41:56.948Z,46.70
2019-05-17T11:42:59.884Z,46.20
2019-05-17T11:44:02.874Z,45.80
2019-05-17T11:45:06.037Z,45.60
2019-05-17T11:46:08.974Z,45.40
2019-05-17T11:47:12.226Z,45.40
2019-05-17T11:48:15.161Z,45.40
2019-05-17T11:49:18.073Z,46.10
2019-05-17T11:50:21.137Z,45.50
2019-05-17T11:51:26.944Z,45.40
2019-05-17T11:52:28.745Z,45.40
2019-05-17T11:53:31.732Z,45.30
2019-05-17T11:54:34.621Z,45.20
2019-05-17T11:55:37.564Z,45.10
2019-05-17T11:56:40.473Z,44.70
2019-05-17T11:57:43.458Z,44.60
2019-05-17T11:58:46.449Z,43.90
2019-05-17T11:59:49.538Z,43.60
2019-05-17T12:00:53.583Z,43.70
2019-05-17T12:01:56.562Z,43.80
2019-05-17T12:02:59.505Z,43.60
2019-05-17T12:04:02.433Z,43.60
2019-05-17T12:05:06.068Z,43.30
2019-05-17T12:06:09.098Z,42.90
2019-05-17T12:07:14.733Z,42.90
2019-05-17T12:08:17.650Z,42.70
2019-05-17T12:09:20.602Z,42.60
2019-05-17T12:10:23.599Z,42.30
2019-05-17T12:11:26.679Z,42.50
2019-05-17T12:12:29.860Z,42.70
2019-05-17T12:13:32.810Z,42.40
2019-05-17T12:14:35.730Z,42.20
2019-05-17T12:15:45.036Z,42.10
2019-05-17T12:16:43.714Z,42.00
2019-05-17T12:17:48.363Z,41.70
2019-05-17T12:18:51.244Z,41.20
2019-05-17T12:19:54.158Z,41.20
2019-05-17T12:20:57.104Z,41.40
2019-05-17T12:22:00.026Z,41.30
2019-05-17T12:23:03.086Z,41.20
2019-05-17T12:24:06.004Z,41.10
2019-05-17T12:25:08.965Z,40.90
2019-05-17T12:26:11.910Z,40.60
2019-05-17T12:27:14.837Z,40.30
2019-05-17T12:28:17.771Z,40.00
2019-05-17T12:29:20.736Z,39.60
2019-05-17T12:30:23.715Z,39.70
2019-05-17T12:31:26.624Z,39.90
2019-05-17T12:32:29.554Z,40.00
2019-05-17T12:33:32.496Z,39.90
2019-05-17T12:34:35.505Z,39.80
2019-05-17T12:35:41.493Z,40.00
2019-05-17T12:36:44.430Z,40.10
2019-05-17T12:37:47.412Z,40.50
2019-05-17T12:38:50.642Z,40.40
2019-05-17T12:39:53.554Z,40.50
2019-05-17T12:40:56.616Z,40.60
2019-05-17T12:42:00.071Z,40.70
2019-05-17T12:43:03.045Z,40.40
2019-05-17T12:44:06.296Z,40.20
2019-05-17T12:45:09.229Z,40.00
2019-05-17T12:46:12.213Z,40.10
2019-05-17T12:47:15.140Z,40.00
2019-05-17T12:48:18.058Z,40.00
2019-05-17T12:49:20.989Z,40.30
2019-05-17T12:50:23.950Z,40.40
2019-05-17T12:51:26.916Z,40.70
2019-05-17T12:52:29.851Z,41.10
2019-05-17T12:53:32.828Z,41.60
2019-05-17T12:54:35.749Z,41.90
2019-05-17T12:55:38.673Z,42.10
2019-05-17T12:56:41.745Z,42.40
2019-05-17T12:57:44.722Z,42.60
2019-05-17T12:58:47.643Z,42.80
2019-05-17T12:59:50.557Z,42.80
2019-05-17T13:00:53.557Z,42.70
2019-05-17T13:01:56.499Z,42.70
2019-05-17T13:02:59.442Z,42.80
2019-05-17T13:04:04.940Z,42.90
2019-05-17T13:05:07.957Z,43.10
2019-05-17T13:06:11.050Z,43.40
2019-05-17T13:07:13.966Z,43.40
2019-05-17T13:08:16.890Z,43.40
2019-05-17T13:09:19.770Z,43.50
2019-05-17T13:10:22.731Z,43.80
2019-05-17T13:11:25.766Z,44.00
2019-05-17T13:12:28.678Z,44.00
2019-05-17T13:13:31.622Z,43.90
2019-05-17T13:14:34.569Z,44.10
2019-05-17T13:15:37.449Z,44.10
2019-05-17T13:16:40.692Z,44.20
2019-05-17T13:17:43.591Z,44.10
2019-05-17T13:18:46.613Z,44.00
2019-05-17T13:19:49.510Z,44.10
2019-05-17T13:20:52.439Z,44.10
2019-05-17T13:21:55.502Z,44.20
2019-05-17T13:22:58.434Z,43.80
2019-05-17T13:24:01.412Z,43.70
2019-05-17T13:25:06.026Z,43.80
2019-05-17T13:26:09.202Z,44.00
2019-05-17T13:27:12.176Z,44.20
2019-05-17T13:28:15.057Z,44.30
2019-05-17T13:29:18.015Z,44.40
2019-05-17T13:30:20.938Z,44.50
2019-05-17T13:31:23.845Z,44.80
2019-05-17T13:32:26.822Z,44.50
2019-05-17T13:33:29.830Z,44.70
2019-05-17T13:34:32.780Z,44.60
2019-05-17T13:35:35.733Z,44.50
2019-05-17T13:36:38.664Z,44.30
2019-05-17T13:37:41.640Z,44.50
2019-05-17T13:38:44.809Z,44.90